Chopin — ZDFE4 — position and weather

sailwx.info

Track history (hours):
 
Tides and Currents Weather Stations Pressure Air Temp Water Temp Dewpoint Dewpoint Depression Visibility Wind Speed Wind Dir Waves Ship Positions

Chopin

Last reported at 2014-Sep-17 04:32 UTC. Time now 2014-Sep-17 05:36 UTC.
Position N 51°31' W 002°42'.

Length 104 m; draft 4.2 m.

Type: Cargo ship. MMSI: 236099000.

Date/timePositionNaut miles runAvg speedWind from/ knotsBaromVisibWave heightAir tempDewpointWater temp
2014-Sep-17 04:32N 51°31' W 002°42'0 0.0
2014-Sep-17 03:32N 51°31' W 002°42'0 0.0
2014-Sep-17 02:32N 51°31' W 002°42'0 0.0
2014-Sep-17 01:26N 51°31' W 002°42'0 0.0
2014-Sep-17 00:32N 51°31' W 002°42'0 0.0
2014-Sep-16 23:32N 51°31' W 002°42'0 0.0
2014-Sep-16 22:32N 51°31' W 002°42'0 0.0
2014-Sep-16 21:32N 51°31' W 002°42'0 0.0
2014-Sep-16 20:32N 51°31' W 002°42'0 0.0
2014-Sep-16 19:29N 51°31' W 002°42'0 0.0
2014-Sep-16 18:32N 51°31' W 002°42'0 0.0
2014-Sep-16 17:32N 51°31' W 002°42'0 0.0
2014-Sep-16 16:29N 51°31' W 002°42'0 0.0
2014-Sep-16 15:32N 51°31' W 002°42'0 0.0
2014-Sep-16 14:32N 51°31' W 002°42'0 0.0
2014-Sep-16 13:32N 51°31' W 002°42'0 0.0
2014-Sep-16 12:32N 51°31' W 002°42'0 0.0
2014-Sep-16 11:29N 51°31' W 002°42'0 0.0
2014-Sep-16 10:32N 51°31' W 002°42'0 0.0
2014-Sep-16 09:32N 51°31' W 002°42'0 0.0
2014-Sep-16 08:32N 51°31' W 002°42'0 0.0
2014-Sep-16 07:32N 51°31' W 002°42'0 0.0
2014-Sep-16 06:32N 51°31' W 002°42'0 0.0
2014-Sep-16 05:32N 51°31' W 002°42'0 0.0
2014-Sep-16 04:31N 51°31' W 002°42'0 0.0
2014-Sep-16 03:31N 51°31' W 002°42'0 0.0
2014-Sep-16 02:31N 51°31' W 002°42'0 0.0
2014-Sep-16 01:31N 51°31' W 002°42'0 0.0
2014-Sep-16 00:31N 51°31' W 002°42'0 0.0
2014-Sep-15 23:31N 51°31' W 002°42'0 0.0
2014-Sep-15 22:31N 51°31' W 002°42'0 0.0
2014-Sep-15 21:31N 51°31' W 002°42'0 0.0
2014-Sep-15 20:31N 51°31' W 002°42'0 0.0
2014-Sep-15 19:31N 51°31' W 002°42'0 0.0
2014-Sep-15 18:31N 51°31' W 002°42'0 0.0
2014-Sep-15 17:28N 51°31' W 002°42'0 0.0
2014-Sep-15 16:31N 51°31' W 002°42'0 0.0
2014-Sep-15 15:31N 51°31' W 002°42'0 0.0
2014-Sep-15 14:31N 51°31' W 002°42'0 0.0
2014-Sep-15 13:31N 51°31' W 002°42'0 0.0
2014-Sep-15 12:31N 51°31' W 002°42'0 0.0
2014-Sep-15 11:31N 51°31' W 002°42'0 0.0
2014-Sep-15 10:31N 51°31' W 002°42'0 0.0
2014-Sep-15 09:31N 51°31' W 002°42'0 0.0
2014-Sep-15 08:31N 51°31' W 002°42'0 0.0
2014-Sep-15 07:31N 51°31' W 002°42'0 0.0
2014-Sep-15 06:31N 51°31' W 002°42'0 0.0
2014-Sep-15 05:31N 51°31' W 002°42'0 0.0
2014-Sep-15 04:31N 51°31' W 002°42'0 0.0
2014-Sep-15 03:31N 51°31' W 002°42'0 0.0
2014-Sep-15 02:31N 51°31' W 002°42'0 0.0
2014-Sep-15 01:31N 51°31' W 002°42'0 0.0
2014-Sep-15 00:31N 51°31' W 002°42'0 0.5
2014-Sep-14 23:31N 51°30' W 002°43'2 2.5
2014-Sep-14 22:34N 51°30' W 002°46'1111.4
2014-Sep-14 21:33N 51°25' W 003°03'1010.2
2014-Sep-14 20:33N 51°21' W 003°18'81 5.7
2014-Sep-14 06:19N 50°43' W 005°12'8 9.9
2014-Sep-14 05:33N 50°38' W 005°21'1010.0
2014-Sep-14 04:33N 50°32' W 005°33'10 9.5
2014-Sep-14 03:33N 50°25' W 005°44'162 9.4
2014-Sep-13 10:22N 47°53' W 007°08'8 9.3
2014-Sep-13 09:33N 47°46' W 007°13'12 9.8
2014-Sep-13 08:21N 47°35' W 007°19'810.7
2014-Sep-13 07:33N 47°27' W 007°24'  
Track history (hours):
 
Tides and Currents Weather Stations Pressure Air Temp Water Temp Dewpoint Dewpoint Depression Visibility Wind Speed Wind Dir Waves Ship Positions

Chopin

Last reported at 2014-Sep-17 04:32 UTC. Time now 2014-Sep-17 05:36 UTC.
Position N 51°31' W 002°42'.

Length 104 m; draft 4.2 m.

Type: Cargo ship. MMSI: 236099000.

Date/timePositionNaut miles runAvg speedWind from/ knotsBaromVisibWave heightAir tempDewpointWater temp
2014-Sep-17 04:32N 51°31' W 002°42'0 0.0
2014-Sep-17 03:32N 51°31' W 002°42'0 0.0
2014-Sep-17 02:32N 51°31' W 002°42'0 0.0
2014-Sep-17 01:26N 51°31' W 002°42'0 0.0
2014-Sep-17 00:32N 51°31' W 002°42'0 0.0
2014-Sep-16 23:32N 51°31' W 002°42'0 0.0
2014-Sep-16 22:32N 51°31' W 002°42'0 0.0
2014-Sep-16 21:32N 51°31' W 002°42'0 0.0
2014-Sep-16 20:32N 51°31' W 002°42'0 0.0
2014-Sep-16 19:29N 51°31' W 002°42'0 0.0
2014-Sep-16 18:32N 51°31' W 002°42'0 0.0
2014-Sep-16 17:32N 51°31' W 002°42'0 0.0
2014-Sep-16 16:29N 51°31' W 002°42'0 0.0
2014-Sep-16 15:32N 51°31' W 002°42'0 0.0
2014-Sep-16 14:32N 51°31' W 002°42'0 0.0
2014-Sep-16 13:32N 51°31' W 002°42'0 0.0
2014-Sep-16 12:32N 51°31' W 002°42'0 0.0
2014-Sep-16 11:29N 51°31' W 002°42'0 0.0
2014-Sep-16 10:32N 51°31' W 002°42'0 0.0
2014-Sep-16 09:32N 51°31' W 002°42'0 0.0
2014-Sep-16 08:32N 51°31' W 002°42'0 0.0
2014-Sep-16 07:32N 51°31' W 002°42'0 0.0
2014-Sep-16 06:32N 51°31' W 002°42'0 0.0
2014-Sep-16 05:32N 51°31' W 002°42'0 0.0
2014-Sep-16 04:31N 51°31' W 002°42'0 0.0
2014-Sep-16 03:31N 51°31' W 002°42'0 0.0
2014-Sep-16 02:31N 51°31' W 002°42'0 0.0
2014-Sep-16 01:31N 51°31' W 002°42'0 0.0
2014-Sep-16 00:31N 51°31' W 002°42'0 0.0
2014-Sep-15 23:31N 51°31' W 002°42'0 0.0
2014-Sep-15 22:31N 51°31' W 002°42'0 0.0
2014-Sep-15 21:31N 51°31' W 002°42'0 0.0
2014-Sep-15 20:31N 51°31' W 002°42'0 0.0
2014-Sep-15 19:31N 51°31' W 002°42'0 0.0
2014-Sep-15 18:31N 51°31' W 002°42'0 0.0
2014-Sep-15 17:28N 51°31' W 002°42'0 0.0
2014-Sep-15 16:31N 51°31' W 002°42'0 0.0
2014-Sep-15 15:31N 51°31' W 002°42'0 0.0
2014-Sep-15 14:31N 51°31' W 002°42'0 0.0
2014-Sep-15 13:31N 51°31' W 002°42'0 0.0
2014-Sep-15 12:31N 51°31' W 002°42'0 0.0
2014-Sep-15 11:31N 51°31' W 002°42'0 0.0
2014-Sep-15 10:31N 51°31' W 002°42'0 0.0
2014-Sep-15 09:31N 51°31' W 002°42'0 0.0
2014-Sep-15 08:31N 51°31' W 002°42'0 0.0
2014-Sep-15 07:31N 51°31' W 002°42'0 0.0
2014-Sep-15 06:31N 51°31' W 002°42'0 0.0
2014-Sep-15 05:31N 51°31' W 002°42'0 0.0
2014-Sep-15 04:31N 51°31' W 002°42'0 0.0
2014-Sep-15 03:31N 51°31' W 002°42'0 0.0
2014-Sep-15 02:31N 51°31' W 002°42'0 0.0
2014-Sep-15 01:31N 51°31' W 002°42'0 0.0
2014-Sep-15 00:31N 51°31' W 002°42'0 0.5
2014-Sep-14 23:31N 51°30' W 002°43'2 2.5
2014-Sep-14 22:34N 51°30' W 002°46'1111.4
2014-Sep-14 21:33N 51°25' W 003°03'1010.2
2014-Sep-14 20:33N 51°21' W 003°18'81 5.7
2014-Sep-14 06:19N 50°43' W 005°12'8 9.9
2014-Sep-14 05:33N 50°38' W 005°21'1010.0
2014-Sep-14 04:33N 50°32' W 005°33'10 9.5
2014-Sep-14 03:33N 50°25' W 005°44'162 9.4
2014-Sep-13 10:22N 47°53' W 007°08'8 9.3
2014-Sep-13 09:33N 47°46' W 007°13'12 9.8
2014-Sep-13 08:21N 47°35' W 007°19'810.7
2014-Sep-13 07:33N 47°27' W 007°24'  

Dump ship's entire track history